createdAt,value
2023-04-02T00:00:09.704Z,86.61
2023-04-02T00:03:15.483Z,85.99
2023-04-02T00:06:33.800Z,86.16
2023-04-02T00:09:38.158Z,86.48
2023-04-02T00:12:40.679Z,86.87
2023-04-02T00:15:45.902Z,86.84
2023-04-02T00:18:53.102Z,87.15
2023-04-02T00:21:57.948Z,87.53
2023-04-02T00:25:07.814Z,87.94
2023-04-02T00:28:14.623Z,88.16
2023-04-02T00:31:19.820Z,87.72
2023-04-02T00:34:23.957Z,87.91
2023-04-02T00:37:38.664Z,87.61
2023-04-02T00:40:42.585Z,88.27
2023-04-02T00:43:47.247Z,88.43
2023-04-02T00:46:50.907Z,89.16
2023-04-02T00:50:11.438Z,89.40
2023-04-02T00:53:30.257Z,89.28
2023-04-02T00:56:39.693Z,88.63
2023-04-02T01:00:20.076Z,88.39
2023-04-02T01:03:28.930Z,88.83
2023-04-02T01:06:38.063Z,89.52
2023-04-02T01:10:05.651Z,89.84
2023-04-02T01:13:13.682Z,89.56
2023-04-02T01:16:31.330Z,88.37
2023-04-02T01:19:52.723Z,87.65
2023-04-02T01:23:17.068Z,87.33
2023-04-02T01:26:25.515Z,88.32
2023-04-02T01:29:40.999Z,88.84
2023-04-02T01:32:43.939Z,88.24
2023-04-02T01:35:57.716Z,87.99
2023-04-02T01:39:16.653Z,87.95
2023-04-02T01:42:29.994Z,88.71
2023-04-02T01:45:34.930Z,88.38
2023-04-02T01:48:39.458Z,88.01
2023-04-02T01:51:46.983Z,87.76
2023-04-02T01:54:52.413Z,87.91
2023-04-02T01:57:55.556Z,88.38
2023-04-02T02:01:09.450Z,87.53
2023-04-02T02:04:14.015Z,87.71
2023-04-02T02:07:20.541Z,88.40
2023-04-02T02:10:30.099Z,89.56
2023-04-02T02:13:32.642Z,89.62
2023-04-02T02:16:41.984Z,89.66
2023-04-02T02:19:51.143Z,88.73
2023-04-02T02:22:54.430Z,89.17
2023-04-02T02:25:56.973Z,88.42
2023-04-02T02:29:01.982Z,89.45
2023-04-02T02:32:07.480Z,88.74
2023-04-02T02:35:21.041Z,89.76
2023-04-02T02:38:42.693Z,90.21
2023-04-02T02:42:00.931Z,90.55
2023-04-02T02:45:12.677Z,90.48
2023-04-02T02:48:19.853Z,90.11
2023-04-02T02:51:50.054Z,89.62
2023-04-02T02:55:02.709Z,89.39
2023-04-02T02:58:32.189Z,89.79
2023-04-02T03:01:55.034Z,88.72
2023-04-02T03:04:58.439Z,89.19
2023-04-02T03:08:07.104Z,88.88
2023-04-02T03:11:26.578Z,89.14
2023-04-02T03:14:44.838Z,88.25
2023-04-02T03:17:56.010Z,87.67
2023-04-02T03:21:20.263Z,87.90
2023-04-02T03:24:28.630Z,86.67
2023-04-02T03:27:35.270Z,86.90
2023-04-02T03:31:05.896Z,87.61
2023-04-02T03:34:14.357Z,86.89
2023-04-02T03:37:19.656Z,86.70
2023-04-02T03:40:27.196Z,86.71
2023-04-02T03:43:45.862Z,87.01
2023-04-02T03:46:57.500Z,86.46
2023-04-02T03:50:17.461Z,85.41
2023-04-02T03:53:25.122Z,83.91
2023-04-02T03:56:32.357Z,83.35
2023-04-02T03:59:44.783Z,82.51
2023-04-02T04:02:54.810Z,83.07
2023-04-02T04:06:05.789Z,83.73
2023-04-02T04:09:11.850Z,83.28
2023-04-02T04:12:26.062Z,84.57
2023-04-02T04:15:35.650Z,85.51
2023-04-02T04:18:50.014Z,85.34
2023-04-02T04:21:57.108Z,84.54
2023-04-02T04:25:05.839Z,83.93
2023-04-02T04:28:25.313Z,83.98
2023-04-02T04:31:46.872Z,84.18
2023-04-02T04:34:53.744Z,83.82
2023-04-02T04:38:14.479Z,85.14
2023-04-02T04:41:29.405Z,85.32
2023-04-02T04:44:46.554Z,85.36
2023-04-02T04:48:05.126Z,85.00
2023-04-02T04:51:17.703Z,84.67
2023-04-02T04:54:20.961Z,84.70
2023-04-02T04:57:36.473Z,85.60
2023-04-02T05:00:51.190Z,85.46
2023-04-02T05:04:24.564Z,83.91
2023-04-02T05:07:32.710Z,83.92
2023-04-02T05:11:02.301Z,82.51
2023-04-02T05:14:12.867Z,83.35
2023-04-02T05:17:28.420Z,83.30
2023-04-02T05:20:41.291Z,82.37
2023-04-02T05:24:08.192Z,81.01
2023-04-02T05:27:27.308Z,80.09
2023-04-02T05:30:46.697Z,79.82
2023-04-02T05:33:50.850Z,78.92
2023-04-02T05:36:55.736Z,79.96
2023-04-02T05:40:13.547Z,80.64
2023-04-02T05:43:20.547Z,80.67
2023-04-02T05:46:28.255Z,82.36
2023-04-02T05:49:40.619Z,82.96
2023-04-02T05:53:11.243Z,83.46
2023-04-02T05:56:32.103Z,83.51
2023-04-02T05:59:41.854Z,82.00
2023-04-02T06:02:53.742Z,80.50
2023-04-02T06:06:02.727Z,80.79
2023-04-02T06:09:27.643Z,81.20
2023-04-02T06:12:53.436Z,81.59
2023-04-02T06:15:56.626Z,81.24
2023-04-02T06:19:08.214Z,81.77
2023-04-02T06:22:20.581Z,81.86
2023-04-02T06:25:26.460Z,81.87
2023-04-02T06:28:52.951Z,81.65
2023-04-02T06:32:02.145Z,81.44
2023-04-02T06:35:05.609Z,77.54
2023-04-02T06:38:18.990Z,76.46
2023-04-02T06:41:24.619Z,76.88
2023-04-02T06:45:03.550Z,75.41
2023-04-02T06:48:26.067Z,76.20
2023-04-02T06:51:36.221Z,75.04
2023-04-02T06:54:40.055Z,74.12
2023-04-02T06:57:45.214Z,72.65
2023-04-02T07:00:50.751Z,73.22
2023-04-02T07:04:29.000Z,71.82
2023-04-02T07:07:31.482Z,71.47
2023-04-02T07:10:37.114Z,72.28
2023-04-02T07:13:39.782Z,72.76
2023-04-02T07:16:44.239Z,71.79
2023-04-02T07:19:49.647Z,71.79
2023-04-02T07:22:55.049Z,70.30
2023-04-02T07:25:58.506Z,67.16
2023-04-02T07:29:01.386Z,68.27
2023-04-02T07:32:03.944Z,66.61
2023-04-02T07:35:07.925Z,65.81
2023-04-02T07:38:10.338Z,62.07
2023-04-02T07:41:13.605Z,58.39
2023-04-02T07:44:16.202Z,57.82
2023-04-02T07:47:18.578Z,57.76
2023-04-02T07:50:21.176Z,58.45
2023-04-02T07:53:30.245Z,58.87
2023-04-02T07:56:32.699Z,61.53
2023-04-02T07:59:35.042Z,60.01
2023-04-02T08:02:37.717Z,62.05
2023-04-02T08:05:40.430Z,62.90
2023-04-02T08:08:43.086Z,64.22
2023-04-02T08:11:46.719Z,61.25
2023-04-02T08:14:49.332Z,63.15
2023-04-02T08:17:51.819Z,62.89
2023-04-02T08:20:54.396Z,63.92
2023-04-02T08:23:56.803Z,63.52
2023-04-02T08:26:59.235Z,64.44
2023-04-02T08:30:01.650Z,64.39
2023-04-02T08:33:04.549Z,65.03
2023-04-02T08:36:07.114Z,62.99
2023-04-02T08:39:12.830Z,63.12
2023-04-02T08:42:22.346Z,63.39
2023-04-02T08:46:06.625Z,64.02
2023-04-02T08:49:14.602Z,61.60
2023-04-02T08:52:38.221Z,60.06
2023-04-02T08:55:55.797Z,61.11
2023-04-02T08:59:02.142Z,59.32
2023-04-02T09:02:52.440Z,57.35
2023-04-02T09:05:56.122Z,56.84
2023-04-02T09:09:00.245Z,57.33
2023-04-02T09:12:04.593Z,54.76
2023-04-02T09:15:31.373Z,52.36
2023-04-02T09:18:34.327Z,51.96
2023-04-02T09:22:00.573Z,46.45
2023-04-02T09:25:05.263Z,43.55
2023-04-02T09:28:11.602Z,44.76
2023-04-02T09:31:25.026Z,46.24
2023-04-02T09:34:31.293Z,52.94
2023-04-02T09:37:33.968Z,53.69
2023-04-02T09:40:53.899Z,56.01
2023-04-02T09:44:31.667Z,58.56
2023-04-02T09:47:34.143Z,59.75
2023-04-02T09:50:36.949Z,60.77
2023-04-02T09:53:42.418Z,52.56
2023-04-02T09:57:01.126Z,53.39
2023-04-02T10:00:31.633Z,54.15
2023-04-02T10:03:35.520Z,54.25
2023-04-02T10:06:50.280Z,50.23
2023-04-02T10:10:01.666Z,48.52
2023-04-02T10:13:20.926Z,48.05
2023-04-02T10:16:33.893Z,47.69
2023-04-02T10:19:42.040Z,44.08
2023-04-02T10:22:46.132Z,42.06
2023-04-02T10:26:06.057Z,38.34
2023-04-02T10:29:34.363Z,41.52
2023-04-02T10:32:51.948Z,41.29
2023-04-02T10:35:54.412Z,41.46
2023-04-02T10:39:25.879Z,43.50
2023-04-02T10:42:43.863Z,43.40
2023-04-02T10:45:51.277Z,44.84
2023-04-02T10:49:38.208Z,48.51
2023-04-02T10:52:57.737Z,46.67
2023-04-02T10:56:05.541Z,46.08
2023-04-02T10:59:26.172Z,47.74
2023-04-02T11:02:53.656Z,49.08
2023-04-02T11:06:00.064Z,49.95
2023-04-02T11:09:06.035Z,49.00
2023-04-02T11:12:16.291Z,47.04
2023-04-02T11:15:20.454Z,48.28
2023-04-02T11:18:36.737Z,48.17
2023-04-02T11:21:57.324Z,47.78
2023-04-02T11:25:01.538Z,47.41
2023-04-02T11:28:26.287Z,44.19
2023-04-02T11:31:28.902Z,43.34
2023-04-02T11:35:02.926Z,44.83
2023-04-02T11:38:10.935Z,40.08
2023-04-02T11:41:13.314Z,36.74
2023-04-02T11:44:24.235Z,37.87
2023-04-02T11:47:29.687Z,34.22
2023-04-02T11:50:42.792Z,34.48
2023-04-02T11:53:45.495Z,34.74
2023-04-02T11:57:22.977Z,33.42
2023-04-02T12:00:33.413Z,32.04
2023-04-02T12:03:47.926Z,32.05
2023-04-02T12:07:17.626Z,31.94
2023-04-02T12:10:47.361Z,32.17
2023-04-02T12:13:51.844Z,32.27
2023-04-02T12:16:54.557Z,31.60
2023-04-02T12:20:20.385Z,32.55
2023-04-02T12:23:31.529Z,36.19
2023-04-02T12:26:37.553Z,39.14
2023-04-02T12:29:40.877Z,41.55
2023-04-02T12:32:43.812Z,38.61
2023-04-02T12:35:51.230Z,38.20
2023-04-02T12:38:57.401Z,33.47
2023-04-02T12:42:00.051Z,33.78
2023-04-02T12:45:05.346Z,33.29
2023-04-02T12:48:11.340Z,37.68
2023-04-02T12:51:13.844Z,38.55
2023-04-02T12:54:18.005Z,44.04
2023-04-02T12:57:41.043Z,45.55
2023-04-02T13:00:43.854Z,44.88
2023-04-02T13:04:08.131Z,44.55
2023-04-02T13:07:17.453Z,39.23
2023-04-02T13:10:29.040Z,40.90
2023-04-02T13:13:36.982Z,41.39
2023-04-02T13:16:40.748Z,43.88
2023-04-02T13:19:43.151Z,45.05
2023-04-02T13:22:46.025Z,45.07
2023-04-02T13:25:48.464Z,48.21
2023-04-02T13:29:00.780Z,50.42
2023-04-02T13:32:12.152Z,50.53
2023-04-02T13:35:14.803Z,50.57
2023-04-02T13:38:17.817Z,51.13
2023-04-02T13:41:27.363Z,52.33
2023-04-02T13:44:31.810Z,49.88
2023-04-02T13:47:34.316Z,49.47
2023-04-02T13:50:36.885Z,50.49
2023-04-02T13:53:40.319Z,53.32
2023-04-02T13:56:42.835Z,50.48
2023-04-02T13:59:45.624Z,51.12
2023-04-02T14:02:52.906Z,53.47
2023-04-02T14:06:04.687Z,52.45
2023-04-02T14:09:18.003Z,53.48
2023-04-02T14:12:45.505Z,51.91
2023-04-02T14:15:56.610Z,53.19
2023-04-02T14:19:05.020Z,55.43
2023-04-02T14:22:24.769Z,58.87
2023-04-02T14:25:45.335Z,57.68
2023-04-02T14:29:19.520Z,58.51
2023-04-02T14:32:29.049Z,57.65
2023-04-02T14:35:37.224Z,59.70
2023-04-02T14:38:57.619Z,60.08
2023-04-02T14:42:52.580Z,61.73
2023-04-02T14:46:06.635Z,61.80
2023-04-02T14:49:09.300Z,61.66
2023-04-02T14:52:18.850Z,61.06
2023-04-02T14:55:36.009Z,60.61
2023-04-02T14:58:43.670Z,57.29
2023-04-02T15:01:49.912Z,59.20
2023-04-02T15:05:04.690Z,60.75
2023-04-02T15:08:19.703Z,61.14
2023-04-02T15:11:51.014Z,61.82
2023-04-02T15:15:08.690Z,63.71
2023-04-02T15:18:13.926Z,65.26
2023-04-02T15:21:19.500Z,65.67
2023-04-02T15:24:35.071Z,67.81
2023-04-02T15:27:43.297Z,68.03
2023-04-02T15:30:50.153Z,70.02
2023-04-02T15:34:30.329Z,71.34
2023-04-02T15:37:58.297Z,69.38
2023-04-02T15:41:26.632Z,70.13
2023-04-02T15:44:29.279Z,72.06
2023-04-02T15:47:49.966Z,72.44
2023-04-02T15:51:03.945Z,74.54
2023-04-02T15:54:21.492Z,76.36
2023-04-02T15:57:36.092Z,77.84
2023-04-02T16:01:08.484Z,77.87
2023-04-02T16:04:18.855Z,78.09
2023-04-02T16:07:43.270Z,77.85
2023-04-02T16:10:45.826Z,78.22
2023-04-02T16:13:48.949Z,78.25
2023-04-02T16:16:53.260Z,79.30
2023-04-02T16:20:06.039Z,77.98
2023-04-02T16:23:17.218Z,76.74
2023-04-02T16:26:22.307Z,76.39
2023-04-02T16:29:53.468Z,75.09
2023-04-02T16:33:10.465Z,76.24
2023-04-02T16:36:17.501Z,76.60
2023-04-02T16:39:25.500Z,76.69
2023-04-02T16:42:49.624Z,75.07
2023-04-02T16:46:01.534Z,76.11
2023-04-02T16:49:18.565Z,75.93
2023-04-02T16:52:54.954Z,75.78
2023-04-02T16:56:16.823Z,74.98
2023-04-02T16:59:46.655Z,75.87
2023-04-02T17:03:13.593Z,75.35
2023-04-02T17:06:42.749Z,75.98
2023-04-02T17:09:45.379Z,75.45
2023-04-02T17:12:56.981Z,75.63
2023-04-02T17:16:20.933Z,75.45
2023-04-02T17:19:27.237Z,74.95
2023-04-02T17:22:31.633Z,75.00
2023-04-02T17:25:48.379Z,74.59
2023-04-02T17:28:51.335Z,74.82
2023-04-02T17:31:58.807Z,75.24
2023-04-02T17:35:36.505Z,75.25
2023-04-02T17:38:57.088Z,74.70
2023-04-02T17:42:38.005Z,73.70
2023-04-02T17:45:55.592Z,73.42
2023-04-02T17:49:11.953Z,74.20
2023-04-02T17:52:44.761Z,73.59
2023-04-02T17:56:18.865Z,74.24
2023-04-02T17:59:26.272Z,74.82
2023-04-02T18:02:47.052Z,75.45
2023-04-02T18:06:12.993Z,74.54
2023-04-02T18:09:28.393Z,75.29
2023-04-02T18:12:34.119Z,73.84
2023-04-02T18:15:39.955Z,74.52
2023-04-02T18:18:51.287Z,74.74
2023-04-02T18:22:19.882Z,74.44
2023-04-02T18:25:41.357Z,75.20
2023-04-02T18:29:14.014Z,75.40
2023-04-02T18:32:36.316Z,76.11
2023-04-02T18:35:57.320Z,74.79
2023-04-02T18:39:35.355Z,75.05
2023-04-02T18:43:00.038Z,76.29
2023-04-02T18:46:11.781Z,74.36
2023-04-02T18:49:36.957Z,74.57
2023-04-02T18:52:41.161Z,74.86
2023-04-02T18:55:54.157Z,76.35
2023-04-02T18:59:11.816Z,75.58
2023-04-02T19:02:33.055Z,76.55
2023-04-02T19:05:36.437Z,75.56
2023-04-02T19:08:54.862Z,76.83
2023-04-02T19:11:58.689Z,77.08
2023-04-02T19:15:02.154Z,77.75
2023-04-02T19:18:35.997Z,78.14
2023-04-02T19:21:53.419Z,78.28
2023-04-02T19:24:58.731Z,78.31
2023-04-02T19:28:11.937Z,79.54
2023-04-02T19:31:55.030Z,79.26
2023-04-02T19:35:10.251Z,79.50
2023-04-02T19:38:12.905Z,78.13
2023-04-02T19:41:41.414Z,78.96
2023-04-02T19:44:48.280Z,78.27
2023-04-02T19:47:51.324Z,77.61
2023-04-02T19:50:54.102Z,77.52
2023-04-02T19:53:56.852Z,77.67
2023-04-02T19:57:00.702Z,76.48
2023-04-02T20:00:05.477Z,75.02
2023-04-02T20:03:14.751Z,75.67
2023-04-02T20:06:17.569Z,74.66
2023-04-02T20:09:21.818Z,74.53
2023-04-02T20:12:24.715Z,74.18
2023-04-02T20:15:27.846Z,74.78
2023-04-02T20:18:32.011Z,73.85
2023-04-02T20:21:38.279Z,72.87
2023-04-02T20:24:42.630Z,73.87
2023-04-02T20:27:46.682Z,73.36
2023-04-02T20:30:50.689Z,72.20
2023-04-02T20:33:57.707Z,73.05
2023-04-02T20:37:00.607Z,72.81
2023-04-02T20:40:03.483Z,73.05
2023-04-02T20:43:06.034Z,72.50
2023-04-02T20:46:10.840Z,72.16
2023-04-02T20:49:14.746Z,72.68
2023-04-02T20:52:17.351Z,71.79
2023-04-02T20:55:19.676Z,72.42
2023-04-02T20:58:22.043Z,72.11
2023-04-02T21:01:29.367Z,71.58
2023-04-02T21:04:31.963Z,72.03
2023-04-02T21:07:34.509Z,71.24
2023-04-02T21:10:37.403Z,70.28
2023-04-02T21:13:43.750Z,70.42
2023-04-02T21:16:46.337Z,71.38
2023-04-02T21:19:48.714Z,70.14
2023-04-02T21:22:51.054Z,69.86
2023-04-02T21:26:02.074Z,69.01
2023-04-02T21:29:05.427Z,69.98
2023-04-02T21:32:20.401Z,70.13
2023-04-02T21:35:24.005Z,69.81
2023-04-02T21:38:26.464Z,69.66
2023-04-02T21:41:31.373Z,70.47
2023-04-02T21:44:33.877Z,69.22
2023-04-02T21:47:36.291Z,70.57
2023-04-02T21:50:38.732Z,69.74
2023-04-02T21:53:42.339Z,70.29
2023-04-02T21:56:46.137Z,70.48
2023-04-02T21:59:48.934Z,71.19
2023-04-02T22:02:51.400Z,69.76
2023-04-02T22:06:04.600Z,70.80
2023-04-02T22:09:10.495Z,70.56
2023-04-02T22:12:12.855Z,69.98
2023-04-02T22:15:15.269Z,70.29
2023-04-02T22:18:17.629Z,69.60
2023-04-02T22:21:20.503Z,70.26
2023-04-02T22:24:23.043Z,70.43
2023-04-02T22:27:25.436Z,69.42
2023-04-02T22:30:29.956Z,69.36
2023-04-02T22:33:34.045Z,70.16
2023-04-02T22:36:36.575Z,69.23
2023-04-02T22:39:38.975Z,69.79
2023-04-02T22:42:41.386Z,69.19
2023-04-02T22:45:49.543Z,69.88
2023-04-02T22:48:52.537Z,70.84
2023-04-02T22:51:55.362Z,71.23
2023-04-02T22:54:57.780Z,69.21
2023-04-02T22:58:00.285Z,69.79
2023-04-02T23:01:09.294Z,70.25
2023-04-02T23:04:11.758Z,69.89
2023-04-02T23:07:14.346Z,68.78
2023-04-02T23:10:17.065Z,70.39
2023-04-02T23:13:19.465Z,68.99
2023-04-02T23:16:22.827Z,69.20
2023-04-02T23:19:25.629Z,69.00
2023-04-02T23:22:27.960Z,69.94
2023-04-02T23:25:30.783Z,69.91
2023-04-02T23:28:34.612Z,69.31
2023-04-02T23:31:37.769Z,69.91
2023-04-02T23:34:40.438Z,69.70
2023-04-02T23:37:42.829Z,69.01
2023-04-02T23:40:45.414Z,69.38
2023-04-02T23:43:48.134Z,69.64
2023-04-02T23:46:50.829Z,69.43
2023-04-02T23:49:53.327Z,69.14
2023-04-02T23:52:55.835Z,69.29
2023-04-02T23:55:58.230Z,69.28
2023-04-02T23:59:00.905Z,70.32
